createdAt,value
2023-02-12T00:01:52.543Z,2.60
2023-02-12T00:04:24.873Z,2.57
2023-02-12T00:06:57.408Z,2.55
2023-02-12T00:09:29.950Z,2.57
2023-02-12T00:12:02.663Z,2.57
2023-02-12T00:14:36.113Z,2.58
2023-02-12T00:17:08.733Z,2.60
2023-02-12T00:19:41.418Z,2.59
2023-02-12T00:22:13.905Z,2.62
2023-02-12T00:24:46.633Z,2.62
2023-02-12T00:27:19.993Z,2.61
2023-02-12T00:29:52.679Z,2.62
2023-02-12T00:32:25.021Z,2.64
2023-02-12T00:34:57.530Z,2.65
2023-02-12T00:37:30.474Z,2.65
2023-02-12T00:40:03.898Z,2.66
2023-02-12T00:42:37.284Z,2.70
2023-02-12T00:45:21.837Z,2.73
2023-02-12T00:47:54.371Z,2.77
2023-02-12T00:50:26.898Z,2.75
2023-02-12T00:53:00.009Z,2.79
2023-02-12T00:55:34.158Z,2.82
2023-02-12T00:58:07.391Z,2.83
2023-02-12T01:00:40.055Z,2.86
2023-02-12T01:03:13.102Z,2.87
2023-02-12T01:05:45.684Z,2.91
2023-02-12T01:08:18.242Z,2.93
2023-02-12T01:11:00.093Z,2.95
2023-02-12T01:13:34.320Z,2.95
2023-02-12T01:16:23.160Z,2.99
2023-02-12T01:18:56.333Z,2.98
2023-02-12T01:21:32.125Z,2.98
2023-02-12T01:24:04.818Z,2.94
2023-02-12T01:26:37.571Z,2.90
2023-02-12T01:29:10.258Z,2.91
2023-02-12T01:31:43.022Z,2.91
2023-02-12T01:34:15.665Z,2.91
2023-02-12T01:36:49.044Z,2.89
2023-02-12T01:39:23.272Z,2.84
2023-02-12T01:41:56.579Z,2.86
2023-02-12T01:44:31.216Z,2.86
2023-02-12T01:47:06.794Z,2.89
2023-02-12T01:49:42.527Z,2.90
2023-02-12T01:52:27.581Z,2.94
2023-02-12T01:55:02.621Z,2.96
2023-02-12T01:57:37.797Z,2.98
2023-02-12T02:00:15.375Z,2.97
2023-02-12T02:02:51.308Z,2.98
2023-02-12T02:05:46.705Z,2.99
2023-02-12T02:08:19.268Z,3.00
2023-02-12T02:10:51.887Z,3.04
2023-02-12T02:13:42.286Z,3.07
2023-02-12T02:16:24.683Z,3.09
2023-02-12T02:19:02.693Z,3.09
2023-02-12T02:21:57.782Z,3.11
2023-02-12T02:24:56.485Z,3.03
2023-02-12T02:28:08.461Z,2.87
2023-02-12T02:30:56.743Z,2.70
2023-02-12T02:33:42.093Z,2.56
2023-02-12T02:36:59.644Z,2.48
2023-02-12T02:39:46.666Z,2.44
2023-02-12T02:42:26.082Z,2.39
2023-02-12T02:45:36.700Z,2.28
2023-02-12T02:48:40.277Z,2.25
2023-02-12T02:51:17.531Z,2.19
2023-02-12T02:53:54.933Z,2.14
2023-02-12T02:56:27.239Z,2.12
2023-02-12T02:59:06.865Z,2.11
2023-02-12T03:01:58.838Z,2.14
2023-02-12T03:04:38.163Z,2.15
2023-02-12T03:07:35.890Z,2.20
2023-02-12T03:10:19.611Z,2.24
2023-02-12T03:13:12.877Z,2.25
2023-02-12T03:15:58.863Z,2.27
2023-02-12T03:18:39.449Z,2.16
2023-02-12T03:21:15.968Z,2.12
2023-02-12T03:24:08.366Z,2.06
2023-02-12T03:26:45.969Z,2.04
2023-02-12T03:29:18.399Z,1.97
2023-02-12T03:32:13.385Z,1.86
2023-02-12T03:35:23.052Z,1.80
2023-02-12T03:38:00.453Z,1.70
2023-02-12T03:40:56.178Z,1.68
2023-02-12T03:43:45.523Z,1.69
2023-02-12T03:46:25.445Z,1.68
2023-02-12T03:49:14.107Z,1.61
2023-02-12T03:51:47.346Z,1.57
2023-02-12T03:54:22.161Z,1.54
2023-02-12T03:57:02.669Z,1.50
2023-02-12T03:59:36.776Z,1.48
2023-02-12T04:02:09.623Z,1.43
2023-02-12T04:04:42.649Z,1.41
2023-02-12T04:07:15.741Z,1.37
2023-02-12T04:09:48.884Z,1.31
2023-02-12T04:12:26.631Z,1.24
2023-02-12T04:15:03.885Z,1.19
2023-02-12T04:17:47.592Z,1.24
2023-02-12T04:20:42.940Z,1.23
2023-02-12T04:23:58.352Z,1.26
2023-02-12T04:26:47.574Z,1.28
2023-02-12T04:29:34.176Z,1.27
2023-02-12T04:32:10.905Z,1.25
2023-02-12T04:34:55.348Z,1.22
2023-02-12T04:37:41.986Z,1.23
2023-02-12T04:40:15.620Z,1.19
2023-02-12T04:42:50.215Z,1.17
2023-02-12T04:45:26.474Z,1.06
2023-02-12T04:47:59.017Z,0.98
2023-02-12T04:50:41.230Z,0.94
2023-02-12T04:53:14.003Z,0.89
2023-02-12T04:55:47.505Z,0.86
2023-02-12T04:58:20.125Z,0.82
2023-02-12T05:00:53.277Z,0.77
2023-02-12T05:03:25.738Z,0.71
2023-02-12T05:06:00.030Z,0.68
2023-02-12T05:08:32.180Z,0.67
2023-02-12T05:11:29.213Z,0.60
2023-02-12T05:14:02.594Z,0.56
2023-02-12T05:16:34.971Z,0.58
2023-02-12T05:19:09.855Z,0.59
2023-02-12T05:21:42.427Z,0.63
2023-02-12T05:24:15.147Z,0.72
2023-02-12T05:26:47.546Z,0.76
2023-02-12T05:29:20.758Z,0.78
2023-02-12T05:31:53.654Z,0.80
2023-02-12T05:34:26.275Z,0.81
2023-02-12T05:36:58.713Z,0.87
2023-02-12T05:39:31.192Z,0.90
2023-02-12T05:42:03.756Z,0.94
2023-02-12T05:44:36.340Z,0.97
2023-02-12T05:47:08.939Z,1.02
2023-02-12T05:49:41.362Z,1.04
2023-02-12T05:52:15.032Z,1.06
2023-02-12T05:54:50.883Z,1.06
2023-02-12T05:57:23.302Z,1.01
2023-02-12T05:59:56.241Z,0.97
2023-02-12T06:02:29.442Z,0.92
2023-02-12T06:05:02.467Z,0.86
2023-02-12T06:07:35.779Z,0.82
2023-02-12T06:10:30.485Z,0.81
2023-02-12T06:13:02.822Z,0.82
2023-02-12T06:15:40.288Z,0.85
2023-02-12T06:18:13.515Z,1.26
2023-02-12T06:20:46.512Z,2.09
2023-02-12T06:23:18.969Z,2.83
2023-02-12T06:25:55.284Z,3.45
2023-02-12T06:28:29.012Z,4.05
2023-02-12T06:31:01.530Z,4.62
2023-02-12T06:33:36.235Z,5.19
2023-02-12T06:36:08.412Z,5.64
2023-02-12T06:38:41.193Z,5.70
2023-02-12T06:41:14.598Z,5.36
2023-02-12T06:43:47.792Z,5.33
2023-02-12T06:46:20.875Z,5.53
2023-02-12T06:48:57.737Z,5.16
2023-02-12T06:51:31.580Z,4.66
2023-02-12T06:54:03.920Z,4.32
2023-02-12T06:56:36.245Z,4.26
2023-02-12T06:59:08.534Z,4.57
2023-02-12T07:01:40.954Z,4.82
2023-02-12T07:04:13.695Z,4.67
2023-02-12T07:06:46.626Z,4.39
2023-02-12T07:09:19.417Z,4.13
2023-02-12T07:11:52.524Z,4.12
2023-02-12T07:14:27.833Z,4.10
2023-02-12T07:17:02.120Z,4.21
2023-02-12T07:19:35.203Z,4.43
2023-02-12T07:22:07.725Z,4.32
2023-02-12T07:24:40.248Z,4.01
2023-02-12T07:27:13.268Z,3.77
2023-02-12T07:29:45.600Z,3.71
2023-02-12T07:32:18.185Z,3.68
2023-02-12T07:34:51.890Z,4.19
2023-02-12T07:37:24.530Z,4.97
2023-02-12T07:39:57.390Z,5.61
2023-02-12T07:42:30.489Z,6.27
2023-02-12T07:45:05.378Z,6.89
2023-02-12T07:47:38.838Z,7.13
2023-02-12T07:50:11.613Z,7.48
2023-02-12T07:52:43.999Z,8.01
2023-02-12T07:55:16.375Z,8.27
2023-02-12T07:57:48.728Z,8.03
2023-02-12T08:00:21.544Z,7.72
2023-02-12T08:02:55.624Z,7.42
2023-02-12T08:05:29.365Z,7.33
2023-02-12T08:08:02.005Z,7.66
2023-02-12T08:10:34.600Z,8.03
2023-02-12T08:13:07.139Z,7.96
2023-02-12T08:15:39.862Z,8.01
2023-02-12T08:18:12.491Z,8.31
2023-02-12T08:20:44.847Z,8.65
2023-02-12T08:23:17.148Z,8.97
2023-02-12T08:25:50.376Z,8.98
2023-02-12T08:28:23.505Z,8.75
2023-02-12T08:30:57.617Z,8.53
2023-02-12T08:33:30.404Z,8.46
2023-02-12T08:36:11.541Z,8.73
2023-02-12T08:38:44.972Z,9.13
2023-02-12T08:41:23.039Z,9.58
2023-02-12T08:43:57.766Z,9.90
2023-02-12T08:46:46.195Z,10.04
2023-02-12T08:49:21.728Z,10.23
2023-02-12T08:51:56.385Z,9.96
2023-02-12T08:54:31.171Z,9.58
2023-02-12T08:57:04.287Z,9.57
2023-02-12T08:59:36.752Z,9.80
2023-02-12T09:02:10.914Z,9.99
2023-02-12T09:04:43.150Z,10.20
2023-02-12T09:07:16.763Z,10.13
2023-02-12T09:09:49.151Z,9.91
2023-02-12T09:12:21.769Z,9.91
2023-02-12T09:14:54.544Z,10.11
2023-02-12T09:17:28.747Z,10.30
2023-02-12T09:20:02.415Z,10.41
2023-02-12T09:22:36.771Z,10.59
2023-02-12T09:25:09.733Z,10.79
2023-02-12T09:27:42.634Z,10.85
2023-02-12T09:30:18.930Z,10.84
2023-02-12T09:32:51.590Z,10.67
2023-02-12T09:35:25.075Z,10.79
2023-02-12T09:37:57.436Z,11.02
2023-02-12T09:41:10.036Z,11.12
2023-02-12T09:44:05.594Z,11.12
2023-02-12T09:47:02.699Z,11.31
2023-02-12T09:50:07.500Z,11.51
2023-02-12T09:52:40.846Z,11.55
2023-02-12T09:55:18.401Z,11.54
2023-02-12T09:57:53.645Z,11.52
2023-02-12T10:00:49.703Z,11.64
2023-02-12T10:03:22.549Z,11.83
2023-02-12T10:06:07.628Z,12.01
2023-02-12T10:09:01.493Z,12.15
2023-02-12T10:12:03.218Z,12.21
2023-02-12T10:14:52.181Z,12.32
2023-02-12T10:17:48.790Z,12.54
2023-02-12T10:20:41.768Z,12.63
2023-02-12T10:23:51.244Z,12.59
2023-02-12T10:26:38.747Z,12.34
2023-02-12T10:29:30.749Z,12.08
2023-02-12T10:32:10.145Z,12.06
2023-02-12T10:34:43.335Z,12.04
2023-02-12T10:37:36.697Z,12.08
2023-02-12T10:40:34.142Z,12.19
2023-02-12T10:43:07.526Z,12.23
2023-02-12T10:45:42.512Z,12.23
2023-02-12T10:48:28.106Z,12.22
2023-02-12T10:51:17.513Z,12.24
2023-02-12T10:53:50.220Z,12.25
2023-02-12T10:56:24.881Z,12.03
2023-02-12T10:58:59.806Z,11.79
2023-02-12T11:01:39.368Z,11.73
2023-02-12T11:04:29.637Z,11.68
2023-02-12T11:07:08.185Z,11.75
2023-02-12T11:09:48.178Z,11.97
2023-02-12T11:12:38.351Z,11.96
2023-02-12T11:15:24.242Z,11.91
2023-02-12T11:18:08.691Z,11.88
2023-02-12T11:20:53.706Z,12.09
2023-02-12T11:23:50.765Z,12.20
2023-02-12T11:26:29.241Z,12.28
2023-02-12T11:29:20.635Z,12.47
2023-02-12T11:32:15.861Z,12.61
2023-02-12T11:35:24.173Z,12.84
2023-02-12T11:37:59.418Z,12.96
2023-02-12T11:40:35.359Z,12.85
2023-02-12T11:43:09.550Z,12.90
2023-02-12T11:45:49.352Z,12.87
2023-02-12T11:48:34.955Z,12.79
2023-02-12T11:51:10.103Z,12.69
2023-02-12T11:53:44.741Z,12.51
2023-02-12T11:56:17.199Z,12.35
2023-02-12T11:58:50.625Z,12.33
2023-02-12T12:01:30.350Z,12.33
2023-02-12T12:04:12.594Z,12.34
2023-02-12T12:07:07.935Z,12.34
2023-02-12T12:09:51.198Z,12.15
2023-02-12T12:12:44.250Z,11.25
2023-02-12T12:15:57.731Z,10.15
2023-02-12T12:19:19.993Z,9.25
2023-02-12T12:22:24.128Z,8.51
2023-02-12T12:25:23.875Z,7.89
2023-02-12T12:28:37.293Z,7.37
2023-02-12T12:31:20.712Z,6.96
2023-02-12T12:34:07.791Z,6.64
2023-02-12T12:37:04.194Z,6.45
2023-02-12T12:39:41.405Z,6.21
2023-02-12T12:42:53.143Z,6.07
2023-02-12T12:45:45.536Z,5.89
2023-02-12T12:48:48.582Z,5.68
2023-02-12T12:51:49.640Z,5.60
2023-02-12T12:54:55.400Z,5.55
2023-02-12T12:58:02.758Z,5.46
2023-02-12T13:00:48.093Z,5.26
2023-02-12T13:03:43.752Z,5.09
2023-02-12T13:06:44.412Z,5.06
2023-02-12T13:09:27.504Z,4.98
2023-02-12T13:12:11.632Z,4.91
2023-02-12T13:15:10.030Z,4.84
2023-02-12T13:18:15.477Z,4.67
2023-02-12T13:21:13.450Z,4.49
2023-02-12T13:23:53.536Z,4.44
2023-02-12T13:26:52.991Z,4.43
2023-02-12T13:29:34.898Z,4.40
2023-02-12T13:32:20.479Z,4.37
2023-02-12T13:34:55.157Z,4.33
2023-02-12T13:37:41.398Z,4.34
2023-02-12T13:40:20.484Z,4.30
2023-02-12T13:43:01.218Z,4.23
2023-02-12T13:46:25.411Z,4.21
2023-02-12T13:49:20.755Z,4.22
2023-02-12T13:52:12.996Z,4.15
2023-02-12T13:55:25.389Z,4.09
2023-02-12T13:58:38.217Z,4.06
2023-02-12T14:01:13.069Z,4.00
2023-02-12T14:03:45.562Z,3.94
2023-02-12T14:06:22.645Z,3.93
2023-02-12T14:09:10.833Z,3.88
2023-02-12T14:11:52.270Z,3.80
2023-02-12T14:14:35.373Z,3.71
2023-02-12T14:17:31.998Z,3.72
2023-02-12T14:20:29.080Z,3.69
2023-02-12T14:23:28.426Z,3.68
2023-02-12T14:26:20.609Z,3.63
2023-02-12T14:29:02.963Z,3.62
2023-02-12T14:31:39.748Z,3.59
2023-02-12T14:34:17.968Z,3.58
2023-02-12T14:36:52.420Z,3.57
2023-02-12T14:39:27.429Z,3.46
2023-02-12T14:42:16.685Z,3.37
2023-02-12T14:44:58.033Z,3.32
2023-02-12T14:47:38.571Z,3.29
2023-02-12T14:50:23.298Z,3.24
2023-02-12T14:53:07.392Z,3.21
2023-02-12T14:55:39.719Z,3.14
2023-02-12T14:58:21.887Z,3.12
2023-02-12T15:00:56.527Z,3.08
2023-02-12T15:03:51.345Z,3.07
2023-02-12T15:06:27.798Z,3.05
2023-02-12T15:09:04.119Z,3.06
2023-02-12T15:11:53.594Z,3.06
2023-02-12T15:14:32.580Z,3.00
2023-02-12T15:17:27.411Z,2.96
2023-02-12T15:20:10.635Z,2.90
2023-02-12T15:22:44.736Z,2.86
2023-02-12T15:25:34.431Z,2.80
2023-02-12T15:28:23.041Z,2.75
2023-02-12T15:30:56.033Z,2.68
2023-02-12T15:33:36.222Z,2.58
2023-02-12T15:36:10.318Z,2.54
2023-02-12T15:38:43.815Z,2.48
2023-02-12T15:41:38.164Z,2.47
2023-02-12T15:44:34.929Z,2.43
2023-02-12T15:47:21.416Z,2.33
2023-02-12T15:49:53.980Z,2.32
2023-02-12T15:52:31.990Z,2.34
2023-02-12T15:55:06.357Z,2.29
2023-02-12T15:57:39.514Z,2.26
2023-02-12T16:00:19.595Z,2.22
2023-02-12T16:02:53.972Z,2.25
2023-02-12T16:05:26.398Z,2.25
2023-02-12T16:08:01.439Z,2.21
2023-02-12T16:10:34.062Z,2.14
2023-02-12T16:13:06.575Z,2.13
2023-02-12T16:15:40.454Z,2.09
2023-02-12T16:18:36.693Z,2.05
2023-02-12T16:21:43.701Z,2.00
2023-02-12T16:24:29.672Z,1.94
2023-02-12T16:27:33.967Z,1.89
2023-02-12T16:30:29.931Z,1.87
2023-02-12T16:33:04.628Z,1.85
2023-02-12T16:35:37.793Z,1.82
2023-02-12T16:38:44.196Z,1.78
2023-02-12T16:41:27.321Z,1.77
2023-02-12T16:44:07.930Z,1.78
2023-02-12T16:46:49.461Z,1.75
2023-02-12T16:49:25.143Z,1.75
2023-02-12T16:52:23.154Z,1.74
2023-02-12T16:54:56.666Z,1.71
2023-02-12T16:57:29.393Z,1.70
2023-02-12T17:00:01.757Z,1.70
2023-02-12T17:02:36.422Z,1.66
2023-02-12T17:05:10.370Z,1.58
2023-02-12T17:07:42.740Z,1.54
2023-02-12T17:10:16.575Z,1.59
2023-02-12T17:12:50.915Z,1.60
2023-02-12T17:15:38.143Z,1.60
2023-02-12T17:18:13.004Z,1.55
2023-02-12T17:20:48.562Z,1.56
2023-02-12T17:23:21.326Z,1.53
2023-02-12T17:25:53.669Z,1.55
2023-02-12T17:28:26.440Z,1.51
2023-02-12T17:30:59.360Z,1.51
2023-02-12T17:33:32.346Z,1.47
2023-02-12T17:36:04.938Z,1.43
2023-02-12T17:38:37.459Z,1.41
2023-02-12T17:41:12.955Z,1.40
2023-02-12T17:43:46.552Z,1.37
2023-02-12T17:46:24.421Z,1.38
2023-02-12T17:48:57.653Z,1.36
2023-02-12T17:51:30.303Z,1.38
2023-02-12T17:54:02.662Z,1.42
2023-02-12T17:56:36.458Z,1.45
2023-02-12T17:59:08.868Z,1.48
2023-02-12T18:01:41.312Z,1.49
2023-02-12T18:04:14.773Z,1.49
2023-02-12T18:06:47.835Z,1.51
2023-02-12T18:09:21.536Z,1.49
2023-02-12T18:11:54.081Z,1.48
2023-02-12T18:14:26.434Z,1.47
2023-02-12T18:17:00.438Z,1.41
2023-02-12T18:19:33.135Z,1.40
2023-02-12T18:22:06.363Z,1.31
2023-02-12T18:24:40.914Z,1.27
2023-02-12T18:27:14.718Z,1.22
2023-02-12T18:29:47.398Z,1.18
2023-02-12T18:32:19.884Z,1.12
2023-02-12T18:34:52.582Z,1.10
2023-02-12T18:37:25.073Z,1.07
2023-02-12T18:39:57.788Z,1.04
2023-02-12T18:42:30.395Z,1.03
2023-02-12T18:45:03.451Z,1.00
2023-02-12T18:47:36.439Z,0.97
2023-02-12T18:50:10.267Z,0.95
2023-02-12T18:52:42.849Z,0.94
2023-02-12T18:55:15.867Z,0.92
2023-02-12T18:57:48.445Z,0.94
2023-02-12T19:00:21.658Z,0.91
2023-02-12T19:02:54.190Z,0.92
2023-02-12T19:05:26.786Z,0.88
2023-02-12T19:07:59.610Z,0.81
2023-02-12T19:10:32.369Z,0.66
2023-02-12T19:13:04.898Z,0.53
2023-02-12T19:15:41.819Z,0.44
2023-02-12T19:18:15.404Z,0.39
2023-02-12T19:20:47.785Z,0.35
2023-02-12T19:23:20.593Z,0.30
2023-02-12T19:25:53.009Z,0.26
2023-02-12T19:28:25.731Z,0.27
2023-02-12T19:30:58.785Z,0.27
2023-02-12T19:33:33.342Z,0.29
2023-02-12T19:36:06.429Z,0.32
2023-02-12T19:38:39.378Z,0.38
2023-02-12T19:41:15.705Z,0.41
2023-02-12T19:43:48.917Z,0.47
2023-02-12T19:46:21.555Z,0.51
2023-02-12T19:49:01.541Z,0.56
2023-02-12T19:51:34.006Z,0.58
2023-02-12T19:54:08.201Z,0.60
2023-02-12T19:56:41.566Z,0.64
2023-02-12T19:59:19.663Z,0.66
2023-02-12T20:01:52.294Z,0.67
2023-02-12T20:04:25.304Z,0.67
2023-02-12T20:06:57.766Z,0.68
2023-02-12T20:09:31.524Z,0.67
2023-02-12T20:12:04.164Z,0.65
2023-02-12T20:14:38.284Z,0.60
2023-02-12T20:17:11.304Z,0.59
2023-02-12T20:19:44.495Z,0.57
2023-02-12T20:22:17.265Z,0.51
2023-02-12T20:24:50.597Z,0.45
2023-02-12T20:27:23.472Z,0.43
2023-02-12T20:29:56.072Z,0.40
2023-02-12T20:32:28.419Z,0.39
2023-02-12T20:35:00.741Z,0.36
2023-02-12T20:37:33.324Z,0.38
2023-02-12T20:40:06.511Z,0.37
2023-02-12T20:42:39.461Z,0.39
2023-02-12T20:45:12.320Z,0.34
2023-02-12T20:47:46.064Z,0.36
2023-02-12T20:50:18.683Z,0.36
2023-02-12T20:52:51.979Z,0.36
2023-02-12T20:55:24.924Z,0.35
2023-02-12T20:57:57.669Z,0.34
2023-02-12T21:00:30.005Z,0.33
2023-02-12T21:03:04.725Z,0.37
2023-02-12T21:05:38.423Z,0.36
2023-02-12T21:08:10.600Z,0.37
2023-02-12T21:10:42.963Z,0.33
2023-02-12T21:13:16.563Z,0.30
2023-02-12T21:15:49.359Z,0.26
2023-02-12T21:18:23.736Z,0.23
2023-02-12T21:20:57.734Z,0.20
2023-02-12T21:23:29.792Z,0.18
2023-02-12T21:26:07.694Z,0.14
2023-02-12T21:28:40.443Z,0.13
2023-02-12T21:31:35.198Z,0.15
2023-02-12T21:34:09.341Z,0.17
2023-02-12T21:36:44.728Z,0.20
2023-02-12T21:39:23.550Z,0.25
2023-02-12T21:42:00.425Z,0.23
2023-02-12T21:44:36.032Z,0.27
2023-02-12T21:47:09.589Z,0.27
2023-02-12T21:49:42.265Z,0.30
2023-02-12T21:52:14.932Z,0.34
2023-02-12T21:54:48.879Z,0.39
2023-02-12T21:57:21.984Z,0.39
2023-02-12T21:59:54.451Z,0.40
2023-02-12T22:23:39.893Z,0.80
2023-02-12T22:26:37.047Z,0.67
2023-02-12T22:29:12.071Z,0.60
2023-02-12T22:31:45.815Z,0.44
2023-02-12T22:34:19.639Z,0.36
2023-02-12T22:36:52.173Z,0.31
2023-02-12T22:39:25.069Z,0.23
2023-02-12T22:41:57.684Z,0.18
2023-02-12T22:44:30.164Z,0.15
2023-02-12T22:47:02.677Z,0.18
2023-02-12T22:49:35.304Z,0.21
2023-02-12T22:52:07.860Z,0.20
2023-02-12T22:54:41.460Z,0.20
2023-02-12T22:57:13.799Z,0.22
2023-02-12T22:59:46.634Z,0.24
2023-02-12T23:02:19.337Z,0.18
2023-02-12T23:04:51.940Z,0.09
2023-02-12T23:07:24.268Z,0.07
2023-02-12T23:09:56.804Z,0.06
2023-02-12T23:12:29.410Z,0.00
2023-02-12T23:15:02.426Z,-0.06
2023-02-12T23:17:35.327Z,-0.13
2023-02-12T23:20:19.240Z,-0.22
2023-02-12T23:22:51.687Z,-0.24
2023-02-12T23:25:24.577Z,-0.27
2023-02-12T23:27:57.195Z,-0.29
2023-02-12T23:30:29.813Z,-0.30
2023-02-12T23:33:02.164Z,-0.30
2023-02-12T23:35:34.740Z,-0.31
2023-02-12T23:38:08.116Z,-0.34
2023-02-12T23:40:40.946Z,-0.35
2023-02-12T23:43:13.341Z,-0.39
2023-02-12T23:45:46.498Z,-0.40
2023-02-12T23:48:19.403Z,-0.43
2023-02-12T23:50:52.527Z,-0.43
2023-02-12T23:53:25.772Z,-0.44
2023-02-12T23:55:58.349Z,-0.44
2023-02-12T23:58:31.171Z,-0.44
